Impacts TAF Board
For situational awareness. Not to be used for flight planning purposes.
IDs:

KMEI - Meridian/Key Fld, MS, US

Issued at 1735 UTC 07 Dec 2021
Updated at 1910 UTC 07 Dec 2021
Potential Impact None Slight Moderate High
Time1858Z 07/20Z 07/21Z 07/22Z 07/23Z 08/00Z 08/01Z 08/02Z 08/03Z 08/04Z 08/05Z 08/06Z 08/07Z 08/08Z>>
Type OBS PRVL PRVL PRVL PRVL PRVL PRVL PRVL PRVL PRVL PRVL PRVL PRVL PRVL
VIS 10 >6 >6 >6 >6 >6 >6 >6 >6 >6 5 5 5 5
CIG 15 15 15 15 15 15 15 15 9 9 6 6 6 6
Cover OVC OVC OVC OVC OVC OVC OVC OVC OVC OVC OVC OVC OVC OVC
FltCat MVFR MVFR MVFR MVFR MVFR MVFR MVFR MVFR IFR IFR IFR IFR IFR IFR
WX -RA VCSH VCSH VCSH VCSH VCSH VCSH VCSH -- -- BR BR BR BR
WDir 70 60 60 60 60 60 60 60 VRB VRB VRB VRB VRB VRB
WSpd 5 6 6 6 6 6 6 6 0 0 0 0 0 0
WGst -- -- -- -- -- -- -- -- -- -- -- -- -- --
WSHgt -- -- -- -- -- -- -- -- -- -- -- -- -- --
WSDir -- -- -- -- -- -- -- -- -- -- -- -- -- --
WSSpd -- -- -- -- -- -- -- -- -- -- -- -- -- --
Raw TAF
KMEI 071735Z 0718/0818 06006KT P6SM VCSH OVC015
  FM080300 00000KT P6SM OVC009
  FM080500 00000KT 5SM BR OVC006
  FM081700 36005KT P6SM BKN006


Raw METAR
KMEI 071858Z 07005KT 10SM -RA OVC015 08/03 A3008 RMK AO2 RAB50 SLP185 P0000 I1000 T00830028
KMEI 071758Z 05005KT 10SM OVC015 08/01 A3012 RMK AO2 SLP198 60000 I1000 I6/// T00830011 10089 20061 58019
KMEI 071658Z 06005KT 10SM OVC016 07/01 A3016 RMK AO2 SLP211 I1000 T00720006

METAR Board
Radar Display
Forecast Discussion
For situational awareness. Not to be used for flight planning purposes.